createdAt,value
2017-03-26T00:00:34.901Z,6.77
2017-03-26T00:01:15.789Z,6.72
2017-03-26T00:01:56.670Z,6.64
2017-03-26T00:02:37.553Z,6.74
2017-03-26T00:03:18.436Z,6.63
2017-03-26T00:03:59.320Z,6.66
2017-03-26T00:04:40.201Z,6.69
2017-03-26T00:05:21.080Z,6.62
2017-03-26T00:06:01.960Z,6.59
2017-03-26T00:06:42.838Z,6.69
2017-03-26T00:07:23.731Z,6.7
2017-03-26T00:08:04.620Z,6.7
2017-03-26T00:08:45.496Z,6.7
2017-03-26T00:09:26.382Z,6.87
2017-03-26T00:10:07.272Z,6.93
2017-03-26T00:10:48.155Z,7
2017-03-26T00:11:29.034Z,7
2017-03-26T00:12:09.918Z,6.87
2017-03-26T00:12:50.795Z,6.85
2017-03-26T00:13:31.677Z,6.84
2017-03-26T00:14:12.549Z,6.88
2017-03-26T00:14:53.431Z,6.87
2017-03-26T00:15:34.311Z,6.75
2017-03-26T00:16:15.196Z,6.72
2017-03-26T00:16:56.078Z,6.69
2017-03-26T00:17:36.950Z,6.66
2017-03-26T00:18:17.824Z,6.62
2017-03-26T00:18:58.710Z,6.56
2017-03-26T00:19:39.592Z,6.56
2017-03-26T00:20:20.471Z,6.57
2017-03-26T00:21:01.348Z,6.57
2017-03-26T00:21:42.234Z,6.62
2017-03-26T00:22:23.121Z,6.51
2017-03-26T00:23:04.003Z,6.52
2017-03-26T00:23:44.878Z,6.57
2017-03-26T00:24:25.766Z,6.6
2017-03-26T00:25:06.649Z,6.56
2017-03-26T00:25:47.525Z,6.6
2017-03-26T00:26:28.404Z,6.52
2017-03-26T00:27:09.280Z,6.54
2017-03-26T00:27:50.157Z,6.51
2017-03-26T00:28:31.044Z,6.52
2017-03-26T00:29:11.926Z,6.52
2017-03-26T00:29:52.808Z,6.48
2017-03-26T00:30:33.691Z,6.51
2017-03-26T00:31:14.574Z,6.52
2017-03-26T00:31:55.452Z,6.52
2017-03-26T00:32:36.335Z,6.57
2017-03-26T00:33:17.212Z,6.59
2017-03-26T00:33:58.081Z,6.49
2017-03-26T00:34:38.961Z,6.59
2017-03-26T00:35:19.852Z,6.54
2017-03-26T00:36:00.731Z,6.51
2017-03-26T00:36:41.615Z,6.41
2017-03-26T00:37:22.495Z,6.54
2017-03-26T00:38:03.378Z,6.52
2017-03-26T00:38:44.253Z,6.49
2017-03-26T00:39:25.130Z,6.35
2017-03-26T00:40:06.005Z,6.52
2017-03-26T00:40:46.884Z,6.44
2017-03-26T00:41:27.764Z,6.44
2017-03-26T00:42:08.645Z,6.56
2017-03-26T00:42:49.529Z,6.52
2017-03-26T00:43:30.406Z,6.44
2017-03-26T00:44:11.279Z,6.44
2017-03-26T00:44:52.155Z,6.41
2017-03-26T00:45:33.040Z,6.35
2017-03-26T00:46:13.913Z,6.28
2017-03-26T00:46:54.792Z,6.41
2017-03-26T00:47:35.673Z,6.49
2017-03-26T00:48:16.557Z,6.45
2017-03-26T00:48:57.436Z,6.44
2017-03-26T00:49:38.330Z,6.33
2017-03-26T00:50:19.213Z,6.48
2017-03-26T00:51:00.089Z,6.44
2017-03-26T00:51:40.966Z,6.48
2017-03-26T00:52:21.850Z,6.42
2017-03-26T00:53:02.736Z,6.44
2017-03-26T00:53:43.618Z,6.33
2017-03-26T00:54:24.503Z,6.33
2017-03-26T00:55:05.385Z,6.28
2017-03-26T00:55:46.262Z,6.35
2017-03-26T00:56:27.141Z,6.31
2017-03-26T00:57:08.024Z,6.31
2017-03-26T00:57:48.901Z,6.31
2017-03-26T00:58:29.776Z,6.3
2017-03-26T00:59:10.657Z,6.33
2017-03-26T00:59:51.544Z,6.27
2017-03-26T01:00:32.415Z,6.24
2017-03-26T01:01:13.287Z,6.16
2017-03-26T01:01:54.166Z,6.31
2017-03-26T01:02:35.051Z,6.31
2017-03-26T01:03:15.938Z,6.28
2017-03-26T01:03:56.817Z,6.27
2017-03-26T01:04:37.703Z,6.2
2017-03-26T01:05:18.590Z,6.17
2017-03-26T01:05:59.469Z,6.19
2017-03-26T01:06:40.352Z,6.14
2017-03-26T01:07:21.238Z,6.19
2017-03-26T01:08:02.125Z,6.17
2017-03-26T01:08:43.006Z,6.14
2017-03-26T01:09:23.887Z,6.11
2017-03-26T01:10:04.769Z,6.17
2017-03-26T01:10:45.649Z,6.12
2017-03-26T01:11:26.529Z,6.24
2017-03-26T01:12:07.412Z,6.14
2017-03-26T01:12:48.291Z,6.09
2017-03-26T01:13:29.170Z,6.08
2017-03-26T01:14:10.053Z,6.16
2017-03-26T01:14:50.931Z,6.11
2017-03-26T01:15:31.809Z,6.09
2017-03-26T01:16:12.698Z,6.14
2017-03-26T01:16:53.578Z,6.17
2017-03-26T01:17:34.457Z,6.09
2017-03-26T01:18:15.342Z,6.11
2017-03-26T01:18:56.226Z,6.22
2017-03-26T01:19:37.111Z,6.12
2017-03-26T01:20:17.990Z,6.01
2017-03-26T01:20:58.870Z,6.05
2017-03-26T01:21:39.760Z,6.04
2017-03-26T01:22:20.644Z,6.04
2017-03-26T01:23:01.521Z,6.11
2017-03-26T01:23:42.409Z,6.12
2017-03-26T01:24:23.295Z,6.08
2017-03-26T01:25:04.180Z,6.08
2017-03-26T01:25:45.056Z,6.08
2017-03-26T01:26:25.938Z,6.17
2017-03-26T01:27:06.828Z,6.12
2017-03-26T01:27:47.708Z,6.08
2017-03-26T01:28:28.585Z,6.07
2017-03-26T01:29:09.458Z,6.11
2017-03-26T01:29:50.333Z,6.07
2017-03-26T01:30:31.216Z,6.09
2017-03-26T01:31:12.098Z,6.11
2017-03-26T01:31:52.977Z,6.11
2017-03-26T01:32:33.859Z,6.14
2017-03-26T01:33:14.733Z,6.08
2017-03-26T01:33:55.619Z,6.08
2017-03-26T01:34:36.500Z,6.02
2017-03-26T01:35:17.378Z,6.09
2017-03-26T01:35:58.261Z,6.05
2017-03-26T01:36:39.145Z,6.09
2017-03-26T01:37:20.024Z,5.99
2017-03-26T01:38:00.910Z,6.04
2017-03-26T01:38:41.783Z,6.01
2017-03-26T01:39:22.665Z,5.98
2017-03-26T01:40:03.549Z,6.09
2017-03-26T01:40:44.432Z,6.05
2017-03-26T01:41:25.318Z,6.07
2017-03-26T01:42:06.203Z,6.11
2017-03-26T01:42:47.089Z,6.05
2017-03-26T01:43:27.959Z,6.09
2017-03-26T01:44:08.843Z,6.08
2017-03-26T01:44:49.723Z,6.09
2017-03-26T01:45:30.603Z,6.04
2017-03-26T01:46:11.484Z,6.05
2017-03-26T01:46:52.362Z,6.08
2017-03-26T01:47:33.239Z,6.02
2017-03-26T01:48:14.120Z,6.07
2017-03-26T01:48:55.002Z,6.01
2017-03-26T01:49:35.884Z,6.04
2017-03-26T01:50:16.803Z,6.05
2017-03-26T01:50:57.657Z,5.97
2017-03-26T01:51:38.546Z,5.99
2017-03-26T01:52:19.423Z,5.97
2017-03-26T01:53:00.304Z,5.91
2017-03-26T01:53:41.199Z,5.97
2017-03-26T01:54:22.085Z,5.86
2017-03-26T01:55:02.958Z,5.93
2017-03-26T01:55:43.830Z,5.87
2017-03-26T01:56:24.712Z,5.84
2017-03-26T01:57:05.599Z,5.86
2017-03-26T01:57:46.470Z,5.9
2017-03-26T01:58:27.349Z,5.84
2017-03-26T01:59:08.226Z,5.94
2017-03-26T01:59:49.114Z,5.91
2017-03-26T02:00:30.002Z,5.89
2017-03-26T02:01:10.876Z,5.9
2017-03-26T02:01:51.752Z,5.86
2017-03-26T02:02:32.631Z,5.84
2017-03-26T02:03:13.524Z,5.87
2017-03-26T02:03:54.400Z,5.9
2017-03-26T02:04:35.273Z,5.86
2017-03-26T02:05:16.170Z,5.83
2017-03-26T02:05:57.046Z,5.79
2017-03-26T02:06:37.923Z,5.8
2017-03-26T02:07:18.820Z,5.87
2017-03-26T02:07:59.701Z,5.8
2017-03-26T02:08:40.578Z,5.71
2017-03-26T02:09:21.464Z,5.75
2017-03-26T02:10:02.331Z,5.73
2017-03-26T02:10:43.210Z,5.75
2017-03-26T02:11:24.087Z,5.73
2017-03-26T02:12:04.973Z,5.71
2017-03-26T02:12:45.847Z,5.82
2017-03-26T02:13:26.723Z,5.75
2017-03-26T02:14:07.601Z,5.84
2017-03-26T02:14:48.481Z,5.8
2017-03-26T02:15:29.365Z,5.8
2017-03-26T02:16:10.246Z,5.76
2017-03-26T02:16:51.116Z,5.73
2017-03-26T02:17:31.992Z,5.71
2017-03-26T02:18:12.873Z,5.8
2017-03-26T02:18:53.765Z,5.69
2017-03-26T02:19:34.644Z,5.66
2017-03-26T02:20:15.527Z,5.73
2017-03-26T02:20:56.405Z,5.75
2017-03-26T02:21:37.280Z,5.71
2017-03-26T02:22:18.167Z,5.69
2017-03-26T02:22:59.048Z,5.71
2017-03-26T02:23:39.923Z,5.71
2017-03-26T02:24:20.801Z,5.62
2017-03-26T02:25:01.678Z,5.71
2017-03-26T02:25:42.562Z,5.59
2017-03-26T02:26:23.445Z,5.53
2017-03-26T02:27:04.324Z,5.62
2017-03-26T02:27:45.201Z,5.61
2017-03-26T02:28:26.091Z,5.62
2017-03-26T02:29:06.964Z,5.62
2017-03-26T02:29:47.840Z,5.61
2017-03-26T02:30:28.721Z,5.59
2017-03-26T02:31:09.613Z,5.5
2017-03-26T02:31:50.488Z,5.59
2017-03-26T02:32:31.364Z,5.62
2017-03-26T02:33:12.242Z,5.64
2017-03-26T02:33:53.123Z,5.64
2017-03-26T02:34:34.004Z,5.53
2017-03-26T02:35:14.886Z,5.53
2017-03-26T02:35:55.763Z,5.54
2017-03-26T02:36:36.642Z,5.59
2017-03-26T02:37:17.537Z,5.56
2017-03-26T02:37:58.412Z,5.59
2017-03-26T02:38:39.289Z,5.57
2017-03-26T02:39:20.164Z,5.53
2017-03-26T02:40:01.046Z,5.46
2017-03-26T02:40:41.923Z,5.5
2017-03-26T02:41:22.804Z,5.59
2017-03-26T02:42:03.688Z,5.5
2017-03-26T02:42:44.569Z,5.56
2017-03-26T02:43:25.446Z,5.56
2017-03-26T02:44:06.332Z,5.48
2017-03-26T02:44:47.213Z,5.51
2017-03-26T02:45:28.093Z,5.47
2017-03-26T02:46:08.987Z,5.51
2017-03-26T02:46:49.886Z,5.46
2017-03-26T02:47:30.764Z,5.5
2017-03-26T02:48:11.644Z,5.5
2017-03-26T02:48:52.526Z,5.57
2017-03-26T02:49:33.409Z,5.43
2017-03-26T02:50:14.289Z,5.41
2017-03-26T02:50:55.168Z,5.62
2017-03-26T02:51:36.053Z,5.51
2017-03-26T02:52:16.944Z,5.61
2017-03-26T02:52:57.824Z,5.56
2017-03-26T02:53:38.705Z,5.47
2017-03-26T02:54:19.587Z,5.46
2017-03-26T02:55:00.471Z,5.39
2017-03-26T02:55:41.355Z,5.39
2017-03-26T02:56:22.234Z,5.43
2017-03-26T02:57:03.121Z,5.36
2017-03-26T02:57:44.006Z,5.38
2017-03-26T02:58:24.887Z,5.51
2017-03-26T02:59:05.765Z,5.38
2017-03-26T02:59:46.680Z,5.43
2017-03-26T03:00:27.533Z,5.39
2017-03-26T03:01:08.414Z,5.44
2017-03-26T03:01:49.287Z,5.36
2017-03-26T03:02:30.170Z,5.41
2017-03-26T03:03:11.054Z,5.43
2017-03-26T03:03:51.939Z,5.43
2017-03-26T03:04:32.810Z,5.48
2017-03-26T03:05:13.691Z,5.5
2017-03-26T03:05:54.575Z,5.46
2017-03-26T03:06:35.462Z,5.56
2017-03-26T03:07:16.351Z,5.57
2017-03-26T03:07:57.224Z,5.61
2017-03-26T03:08:38.111Z,5.59
2017-03-26T03:09:18.991Z,5.59
2017-03-26T03:09:59.870Z,5.62
2017-03-26T03:10:40.747Z,5.54
2017-03-26T03:11:21.620Z,5.56
2017-03-26T03:12:02.499Z,5.62
2017-03-26T03:12:43.379Z,5.65
2017-03-26T03:13:24.262Z,5.66
2017-03-26T03:14:05.143Z,5.73
2017-03-26T03:14:46.025Z,5.71
2017-03-26T03:15:26.899Z,5.57
2017-03-26T03:16:07.780Z,5.57
2017-03-26T03:16:48.662Z,5.44
2017-03-26T03:17:29.543Z,5.38
2017-03-26T03:18:10.423Z,5.38
2017-03-26T03:18:51.300Z,5.35
2017-03-26T03:19:32.175Z,5.36
2017-03-26T03:20:13.056Z,5.41
2017-03-26T03:20:53.940Z,5.35
2017-03-26T03:21:34.815Z,5.28
2017-03-26T03:22:15.699Z,5.36
2017-03-26T03:22:56.583Z,5.3
2017-03-26T03:23:37.455Z,5.3
2017-03-26T03:24:18.333Z,5.39
2017-03-26T03:24:59.216Z,5.46
2017-03-26T03:25:40.097Z,5.38
2017-03-26T03:26:20.984Z,5.44
2017-03-26T03:27:01.864Z,5.56
2017-03-26T03:27:42.745Z,5.54
2017-03-26T03:28:23.635Z,5.57
2017-03-26T03:29:04.510Z,5.59
2017-03-26T03:29:45.389Z,5.57
2017-03-26T03:30:26.263Z,5.59
2017-03-26T03:31:07.213Z,5.46
2017-03-26T03:31:48.092Z,5.48
2017-03-26T03:32:28.987Z,5.5
2017-03-26T03:33:09.864Z,5.48
2017-03-26T03:33:50.739Z,5.56
2017-03-26T03:34:31.615Z,5.51
2017-03-26T03:35:12.495Z,5.5
2017-03-26T03:35:53.379Z,5.59
2017-03-26T03:36:34.262Z,5.5
2017-03-26T03:37:15.141Z,5.39
2017-03-26T03:37:56.022Z,5.35
2017-03-26T03:38:36.915Z,5.3
2017-03-26T03:39:17.791Z,5.3
2017-03-26T03:39:58.667Z,5.33
2017-03-26T03:40:39.541Z,5.41
2017-03-26T03:41:20.432Z,5.35
2017-03-26T03:42:01.306Z,5.2
2017-03-26T03:42:42.187Z,5.18
2017-03-26T03:43:23.068Z,5.17
2017-03-26T03:44:03.948Z,5.18
2017-03-26T03:44:44.827Z,5.17
2017-03-26T03:45:25.710Z,5.14
2017-03-26T03:46:06.590Z,5.08
2017-03-26T03:46:47.473Z,5.2
2017-03-26T03:47:28.361Z,5.2
2017-03-26T03:48:09.246Z,5.17
2017-03-26T03:48:50.126Z,5.15
2017-03-26T03:49:31.005Z,5.14
2017-03-26T03:50:11.883Z,5.08
2017-03-26T03:50:52.765Z,5.1
2017-03-26T03:51:33.643Z,5.07
2017-03-26T03:52:14.530Z,5
2017-03-26T03:52:55.405Z,5.04
2017-03-26T03:53:36.283Z,4.99
2017-03-26T03:54:17.167Z,5.02
2017-03-26T03:54:58.044Z,5.05
2017-03-26T03:55:38.924Z,5
2017-03-26T03:56:19.813Z,4.97
2017-03-26T03:57:00.686Z,5.07
2017-03-26T03:57:41.587Z,5.08
2017-03-26T03:58:22.465Z,5.04
2017-03-26T03:59:03.348Z,5.04
2017-03-26T03:59:44.232Z,5.12
2017-03-26T04:00:25.120Z,5.07
2017-03-26T04:01:05.996Z,5.02
2017-03-26T04:01:46.874Z,5
2017-03-26T04:02:27.754Z,4.93
2017-03-26T04:03:08.644Z,4.99
2017-03-26T04:03:49.511Z,4.87
2017-03-26T04:04:30.385Z,4.96
2017-03-26T04:05:11.262Z,4.99
2017-03-26T04:05:52.147Z,4.97
2017-03-26T04:06:33.022Z,4.93
2017-03-26T04:07:13.907Z,4.97
2017-03-26T04:07:54.781Z,4.89
2017-03-26T04:08:35.669Z,5.04
2017-03-26T04:09:16.552Z,4.94
2017-03-26T04:09:57.435Z,5.05
2017-03-26T04:10:38.316Z,4.97
2017-03-26T04:11:19.217Z,4.93
2017-03-26T04:12:00.091Z,4.93
2017-03-26T04:12:40.967Z,5.02
2017-03-26T04:13:21.854Z,5.04
2017-03-26T04:14:02.744Z,5.1
2017-03-26T04:14:43.626Z,5.14
2017-03-26T04:15:24.502Z,5.07
2017-03-26T04:16:05.387Z,5.08
2017-03-26T04:16:46.266Z,5.17
2017-03-26T04:17:27.146Z,5.08
2017-03-26T04:18:08.028Z,5.08
2017-03-26T04:18:48.911Z,5.04
2017-03-26T04:19:29.794Z,5.04
2017-03-26T04:20:10.674Z,5.04
2017-03-26T04:20:51.550Z,5.05
2017-03-26T04:21:32.428Z,4.93
2017-03-26T04:22:13.311Z,5.02
2017-03-26T04:22:54.199Z,4.92
2017-03-26T04:23:35.079Z,4.93
2017-03-26T04:24:15.954Z,4.96
2017-03-26T04:24:56.836Z,4.94
2017-03-26T04:25:37.716Z,4.87
2017-03-26T04:26:18.593Z,4.93
2017-03-26T04:26:59.464Z,4.87
2017-03-26T04:27:40.344Z,4.84
2017-03-26T04:28:21.221Z,4.84
2017-03-26T04:29:02.105Z,4.89
2017-03-26T04:29:42.984Z,4.84
2017-03-26T04:30:23.866Z,4.89
2017-03-26T04:31:04.744Z,4.9
2017-03-26T04:31:45.634Z,4.84
2017-03-26T04:32:26.508Z,4.8
2017-03-26T04:33:07.392Z,4.78
2017-03-26T04:33:48.271Z,4.87
2017-03-26T04:34:29.150Z,4.9
2017-03-26T04:35:10.031Z,4.87
2017-03-26T04:35:50.908Z,4.82
2017-03-26T04:36:31.786Z,4.82
2017-03-26T04:37:12.666Z,4.68
2017-03-26T04:37:53.551Z,4.9
2017-03-26T04:38:34.435Z,4.86
2017-03-26T04:39:15.313Z,4.86
2017-03-26T04:39:56.193Z,4.74
2017-03-26T04:40:37.074Z,4.9
2017-03-26T04:41:17.952Z,4.8
2017-03-26T04:41:58.836Z,4.87
2017-03-26T04:42:39.716Z,4.87
2017-03-26T04:43:20.599Z,4.87
2017-03-26T04:44:01.479Z,4.82
2017-03-26T04:44:42.361Z,4.74
2017-03-26T04:45:23.235Z,4.75
2017-03-26T04:46:04.109Z,4.78
2017-03-26T04:46:44.983Z,4.92
2017-03-26T04:47:25.859Z,4.89
2017-03-26T04:48:06.750Z,4.89
2017-03-26T04:48:47.627Z,4.9
2017-03-26T04:49:28.507Z,4.84
2017-03-26T04:50:09.392Z,4.89
2017-03-26T04:50:50.306Z,4.89
2017-03-26T04:51:31.146Z,4.86
2017-03-26T04:52:12.022Z,4.74
2017-03-26T04:52:52.897Z,4.75
2017-03-26T04:53:33.786Z,4.8
2017-03-26T04:54:14.666Z,4.78
2017-03-26T04:54:55.559Z,4.8
2017-03-26T04:55:36.443Z,4.78
2017-03-26T04:56:17.327Z,4.77
2017-03-26T04:56:58.207Z,4.77
2017-03-26T04:57:39.086Z,4.74
2017-03-26T04:58:19.959Z,4.78
2017-03-26T04:59:00.839Z,4.71
2017-03-26T04:59:41.731Z,4.7
2017-03-26T05:00:22.618Z,4.75
2017-03-26T05:01:03.497Z,4.77
2017-03-26T05:01:44.385Z,4.78
2017-03-26T05:02:25.263Z,4.71
2017-03-26T05:03:06.142Z,4.75
2017-03-26T05:03:47.012Z,4.71
2017-03-26T05:04:27.914Z,4.78
2017-03-26T05:05:08.775Z,4.8
2017-03-26T05:05:49.655Z,4.74
2017-03-26T05:06:30.535Z,4.9
2017-03-26T05:07:11.453Z,5.07
2017-03-26T05:07:52.308Z,5.14
2017-03-26T05:08:33.191Z,5.14
2017-03-26T05:09:14.078Z,5.1
2017-03-26T05:09:54.956Z,5
2017-03-26T05:10:35.850Z,4.97
2017-03-26T05:11:16.738Z,4.93
2017-03-26T05:11:57.617Z,4.96
2017-03-26T05:12:38.494Z,4.87
2017-03-26T05:13:19.374Z,4.84
2017-03-26T05:14:00.258Z,4.9
2017-03-26T05:14:41.145Z,4.92
2017-03-26T05:15:22.012Z,5.08
2017-03-26T05:16:02.891Z,5.02
2017-03-26T05:16:43.775Z,4.97
2017-03-26T05:17:24.656Z,4.96
2017-03-26T05:18:05.535Z,5.12
2017-03-26T05:18:46.433Z,5.15
2017-03-26T05:19:27.312Z,5.07
2017-03-26T05:20:08.190Z,5
2017-03-26T05:20:49.069Z,4.93
2017-03-26T05:21:29.949Z,4.9
2017-03-26T05:22:10.833Z,4.92
2017-03-26T05:22:51.715Z,4.93
2017-03-26T05:23:32.598Z,4.8
2017-03-26T05:24:13.483Z,4.75
2017-03-26T05:24:54.363Z,4.82
2017-03-26T05:25:35.265Z,4.89
2017-03-26T05:26:16.145Z,4.92
2017-03-26T05:26:57.025Z,4.86
2017-03-26T05:27:37.905Z,4.82
2017-03-26T05:28:18.788Z,4.84
2017-03-26T05:28:59.670Z,4.87
2017-03-26T05:29:40.546Z,4.9
2017-03-26T05:30:21.430Z,4.84
2017-03-26T05:31:02.309Z,4.86
2017-03-26T05:31:43.190Z,4.89
2017-03-26T05:32:24.070Z,4.9
2017-03-26T05:33:04.951Z,4.89
2017-03-26T05:33:45.834Z,4.93
2017-03-26T05:34:26.713Z,4.86
2017-03-26T05:35:07.594Z,4.75
2017-03-26T05:35:48.471Z,4.89
2017-03-26T05:36:29.373Z,5
2017-03-26T05:37:10.257Z,4.99
2017-03-26T05:37:51.137Z,5.07
2017-03-26T05:38:32.019Z,5.04
2017-03-26T05:39:12.896Z,5.08
2017-03-26T05:39:53.778Z,5.04
2017-03-26T05:40:34.656Z,4.99
2017-03-26T05:41:15.531Z,5
2017-03-26T05:41:56.419Z,4.99
2017-03-26T05:42:37.301Z,4.96
2017-03-26T05:43:18.182Z,5.02
2017-03-26T05:43:59.072Z,5.15
2017-03-26T05:44:39.956Z,5.15
2017-03-26T05:45:20.833Z,5.14
2017-03-26T05:46:01.710Z,5.07
2017-03-26T05:46:42.584Z,5.15
2017-03-26T05:47:23.461Z,5.2
2017-03-26T05:48:04.347Z,5.29
2017-03-26T05:48:45.224Z,5.26
2017-03-26T05:49:26.111Z,5.23
2017-03-26T05:50:06.988Z,5.3
2017-03-26T05:50:47.885Z,5.39
2017-03-26T05:51:28.769Z,5.47
2017-03-26T05:52:09.647Z,5.46
2017-03-26T05:52:50.526Z,5.48
2017-03-26T05:53:31.412Z,5.41
2017-03-26T05:54:12.292Z,5.61
2017-03-26T05:54:53.169Z,5.62
2017-03-26T05:55:34.042Z,5.56
2017-03-26T05:56:14.923Z,5.56
2017-03-26T05:56:55.807Z,5.61
2017-03-26T05:57:36.687Z,5.59
2017-03-26T05:58:17.571Z,5.59
2017-03-26T05:58:58.446Z,5.51
2017-03-26T05:59:39.326Z,5.51
2017-03-26T06:00:20.211Z,5.56
2017-03-26T06:01:01.087Z,5.57
2017-03-26T06:01:41.963Z,5.57
2017-03-26T06:02:22.844Z,5.46
2017-03-26T06:03:03.728Z,5.46
2017-03-26T06:03:44.615Z,5.48
2017-03-26T06:04:25.498Z,5.54
2017-03-26T06:05:06.375Z,5.59
2017-03-26T06:05:47.261Z,5.59
2017-03-26T06:06:28.194Z,5.62
2017-03-26T06:07:09.021Z,5.64
2017-03-26T06:07:49.901Z,5.59
2017-03-26T06:08:30.784Z,5.57
2017-03-26T06:09:11.661Z,5.57
2017-03-26T06:09:52.535Z,5.59
2017-03-26T06:10:33.421Z,5.54
2017-03-26T06:11:14.301Z,5.61
2017-03-26T06:11:55.183Z,5.48
2017-03-26T06:12:36.065Z,5.56
2017-03-26T06:13:16.947Z,5.61
2017-03-26T06:13:57.829Z,5.61
2017-03-26T06:14:38.713Z,5.64
2017-03-26T06:15:19.599Z,5.57
2017-03-26T06:16:00.478Z,5.65
2017-03-26T06:16:41.397Z,5.57
2017-03-26T06:17:22.233Z,5.56
2017-03-26T06:18:03.118Z,5.66
2017-03-26T06:18:43.994Z,5.64
2017-03-26T06:19:24.869Z,5.69
2017-03-26T06:20:05.738Z,5.69
2017-03-26T06:20:46.618Z,5.66
2017-03-26T06:21:27.500Z,5.68
2017-03-26T06:22:08.382Z,5.71
2017-03-26T06:22:49.263Z,5.66
2017-03-26T06:23:30.151Z,5.66
2017-03-26T06:24:11.032Z,5.82
2017-03-26T06:24:51.916Z,5.83
2017-03-26T06:25:32.795Z,5.72
2017-03-26T06:26:13.682Z,5.72
2017-03-26T06:26:54.568Z,5.82
2017-03-26T06:27:35.450Z,5.82
2017-03-26T06:28:16.330Z,5.73
2017-03-26T06:28:57.205Z,5.76
2017-03-26T06:29:38.082Z,5.8
2017-03-26T06:30:18.966Z,5.86
2017-03-26T06:30:59.851Z,5.84
2017-03-26T06:31:40.721Z,5.84
2017-03-26T06:32:21.587Z,5.84
2017-03-26T06:33:02.465Z,5.83
2017-03-26T06:33:43.349Z,5.87
2017-03-26T06:34:24.232Z,5.87
2017-03-26T06:35:05.105Z,5.93
2017-03-26T06:35:45.982Z,5.84
2017-03-26T06:36:26.858Z,5.82
2017-03-26T06:37:07.746Z,5.97
2017-03-26T06:37:48.626Z,5.97
2017-03-26T06:38:29.509Z,5.86
2017-03-26T06:39:10.394Z,5.86
2017-03-26T06:39:51.271Z,5.93
2017-03-26T06:40:32.158Z,6.02
2017-03-26T06:41:13.041Z,5.99
2017-03-26T06:41:53.914Z,5.99
2017-03-26T06:42:34.792Z,6.04
2017-03-26T06:43:15.675Z,6.07
2017-03-26T06:43:56.565Z,6.07
2017-03-26T06:44:37.443Z,6.11
2017-03-26T06:45:18.324Z,6.05
2017-03-26T06:45:59.206Z,6.08
2017-03-26T06:46:40.090Z,6.07
2017-03-26T06:47:20.962Z,5.99
2017-03-26T06:48:01.834Z,6.08
2017-03-26T06:48:42.715Z,6.02
2017-03-26T06:49:23.597Z,6.09
2017-03-26T06:50:04.478Z,6.08
2017-03-26T06:50:45.360Z,6.16
2017-03-26T06:51:26.232Z,6.09
2017-03-26T06:52:07.115Z,6.07
2017-03-26T06:52:47.998Z,6.17
2017-03-26T06:53:28.879Z,6.19
2017-03-26T06:54:09.757Z,6.16
2017-03-26T06:54:50.636Z,6.2
2017-03-26T06:55:31.522Z,6.22
2017-03-26T06:56:12.404Z,6.33
2017-03-26T06:56:53.282Z,6.33
2017-03-26T06:57:34.161Z,6.3
2017-03-26T06:58:15.047Z,6.33
2017-03-26T06:58:55.930Z,6.44
2017-03-26T06:59:36.807Z,6.42
2017-03-26T07:00:17.685Z,6.41
2017-03-26T07:00:58.568Z,6.42
2017-03-26T07:01:39.456Z,6.45
2017-03-26T07:02:20.341Z,6.42
2017-03-26T07:03:01.222Z,6.45
2017-03-26T07:03:42.111Z,6.41
2017-03-26T07:04:22.993Z,6.45
2017-03-26T07:05:03.874Z,6.36
2017-03-26T07:05:44.796Z,6.56
2017-03-26T07:06:25.636Z,6.42
2017-03-26T07:07:06.518Z,6.44
2017-03-26T07:07:47.397Z,6.46
2017-03-26T07:08:28.276Z,6.52
2017-03-26T07:09:09.158Z,6.52
2017-03-26T07:09:50.045Z,6.54
2017-03-26T07:10:30.929Z,6.59
2017-03-26T07:11:11.814Z,6.56
2017-03-26T07:11:52.692Z,6.54
2017-03-26T07:12:33.573Z,6.54
2017-03-26T07:13:14.458Z,6.67
2017-03-26T07:13:55.339Z,6.59
2017-03-26T07:14:36.224Z,6.64
2017-03-26T07:15:17.098Z,6.62
2017-03-26T07:15:57.983Z,6.77
2017-03-26T07:16:38.865Z,6.69
2017-03-26T07:17:19.746Z,6.67
2017-03-26T07:18:00.627Z,6.7
2017-03-26T07:18:41.511Z,6.67
2017-03-26T07:19:22.392Z,6.62
2017-03-26T07:20:03.272Z,6.54
2017-03-26T07:20:44.157Z,6.59
2017-03-26T07:21:25.045Z,6.75
2017-03-26T07:22:05.930Z,6.77
2017-03-26T07:22:46.808Z,6.82
2017-03-26T07:23:27.688Z,6.87
2017-03-26T07:24:08.570Z,6.82
2017-03-26T07:24:49.455Z,6.87
2017-03-26T07:25:30.337Z,6.89
2017-03-26T07:26:11.221Z,6.93
2017-03-26T07:26:52.103Z,6.97
2017-03-26T07:27:32.986Z,7.02
2017-03-26T07:28:13.866Z,6.96
2017-03-26T07:28:54.748Z,7.13
2017-03-26T07:29:35.628Z,7.1
2017-03-26T07:30:16.507Z,7.06
2017-03-26T07:30:57.395Z,7.14
2017-03-26T07:31:38.276Z,7.06
2017-03-26T07:32:19.161Z,7.11
2017-03-26T07:33:00.044Z,7.1
2017-03-26T07:33:40.930Z,7.11
2017-03-26T07:34:21.816Z,7.21
2017-03-26T07:35:02.697Z,7.23
2017-03-26T07:35:43.581Z,7.21
2017-03-26T07:36:24.465Z,7.33
2017-03-26T07:37:05.343Z,7.24
2017-03-26T07:37:46.234Z,7.31
2017-03-26T07:38:27.122Z,7.39
2017-03-26T07:39:08.006Z,7.31
2017-03-26T07:39:48.878Z,7.31
2017-03-26T07:40:29.760Z,7.31
2017-03-26T07:41:10.657Z,7.28
2017-03-26T07:41:51.534Z,7.33
2017-03-26T07:42:32.416Z,7.35
2017-03-26T07:43:13.302Z,7.31
2017-03-26T07:43:54.214Z,7.32
2017-03-26T07:44:35.097Z,7.35
2017-03-26T07:45:15.978Z,7.33
2017-03-26T07:45:56.862Z,7.4
2017-03-26T07:46:37.752Z,7.38
2017-03-26T07:47:18.633Z,7.4
2017-03-26T07:47:59.514Z,7.35
2017-03-26T07:48:40.399Z,7.32
2017-03-26T07:49:21.280Z,7.48
2017-03-26T07:50:02.166Z,7.48
2017-03-26T07:50:43.055Z,7.47
2017-03-26T07:51:23.937Z,7.5
2017-03-26T07:52:04.817Z,7.48
2017-03-26T07:52:45.697Z,7.63
2017-03-26T07:53:26.581Z,7.6
2017-03-26T07:54:07.464Z,7.58
2017-03-26T07:54:48.353Z,7.56
2017-03-26T07:55:29.234Z,7.51
2017-03-26T07:56:10.113Z,7.6
2017-03-26T07:56:50.997Z,7.56
2017-03-26T07:57:31.876Z,7.69
2017-03-26T07:58:12.761Z,7.82
2017-03-26T07:58:53.644Z,7.91
2017-03-26T07:59:34.528Z,7.98
2017-03-26T08:00:15.407Z,8.13
2017-03-26T08:00:56.286Z,8.28
2017-03-26T08:01:37.182Z,8.12
2017-03-26T08:02:18.062Z,8.24
2017-03-26T08:02:58.945Z,8.45
2017-03-26T08:03:39.826Z,8.46
2017-03-26T08:04:20.702Z,8.52
2017-03-26T08:05:01.595Z,8.67
2017-03-26T08:05:42.476Z,8.95
2017-03-26T08:06:23.361Z,9.19
2017-03-26T08:07:04.245Z,9.43
2017-03-26T08:07:45.128Z,9.5
2017-03-26T08:08:26.014Z,9.54
2017-03-26T08:09:06.902Z,9.76
2017-03-26T08:09:47.790Z,9.97
2017-03-26T08:10:28.679Z,10.19
2017-03-26T08:11:09.566Z,10.17
2017-03-26T08:11:50.453Z,10.28
2017-03-26T08:12:31.347Z,10.35
2017-03-26T08:13:12.229Z,10.44
2017-03-26T08:13:53.122Z,10.51
2017-03-26T08:14:34.014Z,10.67
2017-03-26T08:15:14.907Z,10.69
2017-03-26T08:15:55.799Z,10.86
2017-03-26T08:16:36.690Z,10.93
2017-03-26T08:17:17.571Z,10.92
2017-03-26T08:17:58.466Z,11.04
2017-03-26T08:18:39.391Z,11.25
2017-03-26T08:19:20.256Z,11.05
2017-03-26T08:20:01.151Z,11.23
2017-03-26T08:20:42.041Z,11.19
2017-03-26T08:21:22.942Z,11.18
2017-03-26T08:22:03.833Z,11.36
2017-03-26T08:22:44.727Z,11.23
2017-03-26T08:23:25.617Z,11.32
2017-03-26T08:24:06.551Z,11.14
2017-03-26T08:24:47.398Z,11.08
2017-03-26T08:25:28.293Z,11.19
2017-03-26T08:26:09.185Z,11.43
2017-03-26T08:26:50.083Z,11.51
2017-03-26T08:27:30.972Z,11.68
2017-03-26T08:28:11.863Z,11.88
2017-03-26T08:28:52.759Z,11.95
2017-03-26T08:29:33.643Z,11.86
2017-03-26T08:30:14.532Z,11.36
2017-03-26T08:30:55.427Z,11.45
2017-03-26T08:31:36.322Z,11.62
2017-03-26T08:32:17.222Z,11.55
2017-03-26T08:32:58.119Z,11.65
2017-03-26T08:33:39.014Z,11.86
2017-03-26T08:34:19.910Z,12.02
2017-03-26T08:35:00.802Z,12.2
2017-03-26T08:35:41.698Z,12.22
2017-03-26T08:36:22.584Z,12.22
2017-03-26T08:37:03.484Z,12.37
2017-03-26T08:37:44.385Z,12.58
2017-03-26T08:38:25.288Z,12.46
2017-03-26T08:39:06.182Z,12.64
2017-03-26T08:39:47.082Z,12.31
2017-03-26T08:40:27.985Z,12.1
2017-03-26T08:41:08.882Z,12.39
2017-03-26T08:41:49.807Z,12.73
2017-03-26T08:42:30.711Z,12.98
2017-03-26T08:43:11.624Z,13.15
2017-03-26T08:43:52.551Z,12.93
2017-03-26T08:44:33.439Z,12.72
2017-03-26T08:45:14.360Z,12.57
2017-03-26T08:45:55.247Z,12.58
2017-03-26T08:46:36.147Z,12.46
2017-03-26T08:47:17.046Z,12.57
2017-03-26T08:47:57.944Z,12.5
2017-03-26T08:48:38.845Z,12.49
2017-03-26T08:49:19.734Z,12.45
2017-03-26T08:50:00.659Z,12.36
2017-03-26T08:50:41.570Z,12.25
2017-03-26T08:51:22.476Z,12.21
2017-03-26T08:52:03.370Z,12.24
2017-03-26T08:52:44.262Z,12.03
2017-03-26T08:53:25.161Z,11.88
2017-03-26T08:54:06.061Z,12.24
2017-03-26T08:54:46.959Z,12.37
2017-03-26T08:55:27.858Z,12.47
2017-03-26T08:56:08.764Z,12.94
2017-03-26T08:56:49.666Z,13.3
2017-03-26T08:57:30.563Z,13.41
2017-03-26T08:58:11.494Z,13.54
2017-03-26T08:58:52.400Z,13.52
2017-03-26T08:59:33.302Z,13.44
2017-03-26T09:00:14.197Z,13.62
2017-03-26T09:00:55.098Z,13.6
2017-03-26T09:01:35.996Z,13.41
2017-03-26T09:02:16.906Z,13.44
2017-03-26T09:02:57.801Z,13.2
2017-03-26T09:03:38.712Z,13.31
2017-03-26T09:04:19.619Z,13.23
2017-03-26T09:05:00.519Z,12.91